Time;durP1;ratioP1;P1;durP2;ratioP2;P2;SDS_P1;SDS_P2;PMS_P1;PMS_P2;Temp;Humidity;BMP_temperature;BMP_pressure;BME280_temperature;BME280_humidity;BME280_pressure;Samples;Min_cycle;Max_cycle;Signal;HPM_P1;HPM_P2
2023/04/01 00:01:11;;;;;;;1.38;0.95;;;8.60;99.90;;;;;;5053119;28;20686;-75
2023/04/01 00:03:37;;;;;;;1.25;0.73;;;8.70;99.90;;;;;;5054727;28;20190;-75
2023/04/01 00:06:03;;;;;;;3.13;1.25;;;8.70;99.90;;;;;;5054331;28;20210;-76
2023/04/01 00:08:29;;;;;;;2.28;1.15;;;8.70;99.90;;;;;;5055045;28;20176;-75
2023/04/01 00:10:56;;;;;;;1.70;1.17;;;8.70;99.90;;;;;;5055574;28;20784;-74
2023/04/01 00:13:22;;;;;;;1.00;0.95;;;8.60;99.90;;;;;;5054903;28;20207;-76
2023/04/01 00:15:48;;;;;;;1.17;0.82;;;8.70;99.90;;;;;;5051096;28;20186;-77
2023/04/01 00:18:15;;;;;;;0.88;0.88;;;8.80;99.90;;;;;;5053350;28;20594;-77
2023/04/01 00:20:46;;;;;;;1.33;1.02;;;8.90;99.90;;;;;;5053817;28;20675;-75
2023/04/01 00:23:12;;;;;;;2.05;0.90;;;9.00;99.90;;;;;;5047205;28;20203;-75
2023/04/01 00:25:38;;;;;;;0.85;0.65;;;8.90;99.90;;;;;;5036399;28;20183;-75
2023/04/01 00:28:04;;;;;;;1.42;0.77;;;8.90;99.90;;;;;;5053626;28;20175;-75
2023/04/01 00:30:29;;;;;;;3.95;1.08;;;8.90;99.90;;;;;;5054386;28;20180;-74
2023/04/01 00:32:55;;;;;;;1.23;1.00;;;8.90;99.90;;;;;;5054270;28;20670;-75
2023/04/01 00:35:22;;;;;;;1.75;1.10;;;8.90;99.90;;;;;;5037506;28;20186;-76
2023/04/01 00:37:48;;;;;;;3.38;0.70;;;9.00;99.90;;;;;;5052466;28;20214;-75
2023/04/01 00:40:29;;;;;;;0.85;0.82;;;9.00;99.90;;;;;;5049640;28;20267;-75
2023/04/01 00:42:55;;;;;;;2.42;1.20;;;9.00;99.90;;;;;;5055417;28;20289;-76
2023/04/01 00:45:35;;;;;;;0.75;0.60;;;9.00;99.90;;;;;;5055999;28;20221;-75
2023/04/01 00:48:23;;;;;;;1.17;0.95;;;8.90;99.90;;;;;;5053311;28;20176;-75
2023/04/01 00:50:53;;;;;;;1.23;0.75;;;8.90;99.90;;;;;;5051494;28;20249;-76
2023/04/01 00:53:20;;;;;;;2.05;1.27;;;8.90;99.90;;;;;;5053480;28;20211;-75
2023/04/01 00:55:59;;;;;;;0.70;0.70;;;8.90;99.90;;;;;;5053069;28;20180;-75
2023/04/01 00:58:29;;;;;;;1.50;0.50;;;8.90;99.90;;;;;;5054515;28;20184;-75
2023/04/01 01:00:56;;;;;;;2.00;0.80;;;8.90;99.90;;;;;;5050296;28;20196;-75
2023/04/01 01:03:22;;;;;;;2.92;0.57;;;8.90;99.90;;;;;;5052876;28;20297;-75
2023/04/01 01:06:23;;;;;;;0.68;0.68;;;9.00;99.90;;;;;;5052912;28;20211;-76
2023/04/01 01:09:16;;;;;;;0.68;0.60;;;9.00;99.90;;;;;;5052627;28;20213;-76
2023/04/01 01:12:01;;;;;;;0.40;0.40;;;9.00;99.90;;;;;;5051203;28;20478;-76
2023/04/01 01:14:40;;;;;;;1.27;0.98;;;9.00;99.90;;;;;;5050157;28;20179;-76
2023/04/01 01:17:32;;;;;;;1.33;0.45;;;9.00;99.90;;;;;;5050289;28;20172;-76
2023/04/01 01:20:24;;;;;;;0.85;0.70;;;8.80;99.90;;;;;;5034862;28;20238;-76
2023/04/01 01:23:08;;;;;;;0.75;0.75;;;8.80;99.90;;;;;;5032028;28;20211;-76
2023/04/01 01:25:51;;;;;;;0.75;0.63;;;8.80;99.90;;;;;;5053403;28;20179;-76
2023/04/01 01:28:38;;;;;;;1.17;0.52;;;8.80;99.90;;;;;;5053595;28;20203;-76
2023/04/01 01:31:16;;;;;;;1.30;0.90;;;8.80;99.90;;;;;;5052303;28;20184;-77
2023/04/01 01:33:54;;;;;;;0.38;0.35;;;8.80;99.90;;;;;;5051243;28;20287;-76
2023/04/01 01:36:21;;;;;;;1.75;0.80;;;8.90;99.90;;;;;;5053218;28;20179;-77
2023/04/01 01:38:48;;;;;;;2.38;0.60;;;8.90;99.90;;;;;;5051457;28;20269;-76
2023/04/01 01:41:17;;;;;;;1.25;0.52;;;8.90;99.90;;;;;;5046455;28;20571;-75
2023/04/01 01:43:47;;;;;;;0.68;0.57;;;9.00;99.90;;;;;;5036609;28;20638;-76
2023/04/01 01:46:17;;;;;;;0.70;0.70;;;8.90;99.90;;;;;;5050028;28;20588;-77
2023/04/01 01:48:45;;;;;;;0.50;0.47;;;9.00;99.90;;;;;;5050976;28;20179;-77
2023/04/01 01:51:11;;;;;;;0.70;0.70;;;9.00;99.90;;;;;;5035980;28;20205;-76
2023/04/01 01:53:36;;;;;;;0.68;0.68;;;9.00;99.90;;;;;;5051887;28;20307;-75
2023/04/01 01:56:03;;;;;;;1.40;0.73;;;9.00;99.90;;;;;;5049277;28;20260;-75
2023/04/01 01:58:31;;;;;;;0.93;0.60;;;9.00;99.90;;;;;;5055068;28;20194;-75
2023/04/01 02:01:00;;;;;;;0.70;0.68;;;9.10;99.90;;;;;;5049854;28;20191;-75
2023/04/01 02:03:30;;;;;;;0.68;0.68;;;9.00;99.90;;;;;;5054313;28;20192;-75
2023/04/01 02:05:58;;;;;;;0.43;0.43;;;9.10;99.90;;;;;;5047999;28;20326;-75
2023/04/01 02:08:42;;;;;;;0.50;0.50;;;9.10;99.90;;;;;;5053557;28;20229;-76
2023/04/01 02:11:11;;;;;;;0.40;0.40;;;9.10;99.90;;;;;;5052165;28;20233;-76
2023/04/01 02:13:47;;;;;;;1.00;0.65;;;9.00;99.90;;;;;;5052921;28;20195;-75
2023/04/01 02:16:48;;;;;;;0.98;0.75;;;9.00;99.90;;;;;;5051317;28;20191;-76
2023/04/01 02:19:22;;;;;;;1.13;0.60;;;8.90;99.90;;;;;;5022008;28;20260;-76
2023/04/01 02:21:53;;;;;;;0.75;0.50;;;8.80;99.90;;;;;;5051765;28;20804;-76
2023/04/01 02:24:22;;;;;;;1.60;0.65;;;8.80;99.90;;;;;;5056430;28;20187;-75
2023/04/01 02:26:50;;;;;;;1.05;0.73;;;8.90;99.90;;;;;;5055922;28;20187;-77
2023/04/01 02:29:19;;;;;;;2.90;0.52;;;8.80;99.90;;;;;;5054639;28;20168;-76
2023/04/01 02:31:45;;;;;;;0.75;0.73;;;8.80;99.90;;;;;;5059838;28;20185;-77
2023/04/01 02:34:11;;;;;;;1.65;0.73;;;8.70;99.90;;;;;;5059466;28;20183;-76
2023/04/01 02:36:38;;;;;;;0.65;0.47;;;8.70;99.90;;;;;;5057495;28;20671;-76
2023/04/01 02:39:04;;;;;;;0.38;0.38;;;8.80;99.90;;;;;;5042529;28;20198;-77
2023/04/01 02:41:30;;;;;;;0.63;0.57;;;8.70;99.90;;;;;;5035979;28;20203;-76
2023/04/01 02:43:58;;;;;;;1.08;0.82;;;8.70;99.90;;;;;;5052378;28;20263;-76
2023/04/01 02:46:24;;;;;;;0.85;0.70;;;8.80;99.90;;;;;;5062553;28;20175;-76
2023/04/01 02:48:50;;;;;;;0.55;0.50;;;8.80;99.90;;;;;;5053321;28;20180;-76
2023/04/01 02:51:15;;;;;;;1.02;0.90;;;8.90;99.90;;;;;;5050616;28;20501;-77
2023/04/01 02:53:41;;;;;;;0.60;0.60;;;8.90;99.90;;;;;;5036578;28;20222;-77
2023/04/01 02:56:06;;;;;;;1.08;0.95;;;8.90;99.90;;;;;;5057406;28;20255;-77
2023/04/01 02:58:32;;;;;;;0.70;0.70;;;8.80;99.90;;;;;;5057627;28;20202;-76
2023/04/01 03:00:57;;;;;;;1.02;0.93;;;8.90;99.90;;;;;;5059329;28;20203;-77
2023/04/01 03:03:23;;;;;;;0.45;0.45;;;8.90;99.90;;;;;;5036994;28;20670;-76
2023/04/01 03:05:49;;;;;;;0.57;0.57;;;8.90;99.90;;;;;;5046720;28;20179;-76
2023/04/01 03:08:14;;;;;;;0.82;0.52;;;9.00;99.90;;;;;;5058912;28;20197;-76
2023/04/01 03:10:40;;;;;;;0.82;0.82;;;9.10;99.90;;;;;;5060423;28;20171;-77
2023/04/01 03:13:06;;;;;;;1.48;0.63;;;8.90;99.90;;;;;;5044131;28;20226;-75
2023/04/01 03:15:31;;;;;;;1.20;1.10;;;9.00;99.90;;;;;;5055487;28;20674;-76
2023/04/01 03:17:57;;;;;;;2.33;0.90;;;9.00;99.90;;;;;;5052602;28;20587;-76
2023/04/01 03:20:23;;;;;;;0.90;0.65;;;9.00;99.90;;;;;;5041330;28;20199;-76
2023/04/01 03:22:48;;;;;;;1.88;0.80;;;9.00;99.90;;;;;;5051255;28;20207;-77
2023/04/01 03:25:14;;;;;;;1.27;0.68;;;9.00;99.90;;;;;;5051498;28;20546;-77
2023/04/01 03:27:40;;;;;;;1.45;1.20;;;8.90;99.90;;;;;;5049390;28;20178;-77
2023/04/01 03:30:06;;;;;;;1.35;0.70;;;8.80;99.90;;;;;;5057523;28;20180;-77
2023/04/01 03:32:32;;;;;;;0.47;0.47;;;8.70;99.90;;;;;;5057744;28;20767;-76
2023/04/01 03:34:57;;;;;;;2.15;1.15;;;8.60;99.90;;;;;;5054236;28;20365;-76
2023/04/01 03:37:24;;;;;;;1.83;0.80;;;8.60;99.90;;;;;;5061204;28;20664;-76
2023/04/01 03:39:50;;;;;;;1.27;0.30;;;8.70;99.90;;;;;;5037345;28;20325;-77
2023/04/01 03:42:15;;;;;;;0.60;0.50;;;8.60;99.90;;;;;;5058061;28;20776;-76
2023/04/01 03:44:41;;;;;;;0.50;0.50;;;8.70;99.90;;;;;;5055106;28;20396;-77
2023/04/01 03:47:06;;;;;;;0.88;0.55;;;8.70;99.90;;;;;;5061545;28;20182;-78
2023/04/01 03:49:33;;;;;;;2.92;0.65;;;8.70;99.90;;;;;;5051975;28;20550;-77
2023/04/01 03:51:58;;;;;;;2.20;0.68;;;8.70;99.90;;;;;;5061348;28;20297;-77
2023/04/01 03:54:24;;;;;;;0.50;0.50;;;8.70;99.90;;;;;;5049673;28;20682;-76
2023/04/01 03:56:50;;;;;;;1.17;1.00;;;8.60;99.90;;;;;;5060736;28;20190;-76
2023/04/01 03:59:15;;;;;;;2.78;0.95;;;8.60;99.90;;;;;;5052711;28;20182;-76
2023/04/01 04:01:41;;;;;;;2.78;0.85;;;8.70;99.90;;;;;;5042908;28;20709;-77
2023/04/01 04:04:08;;;;;;;1.70;0.93;;;8.60;99.90;;;;;;5050405;28;20196;-76
2023/04/01 04:06:33;;;;;;;1.40;0.55;;;8.60;99.90;;;;;;5050681;28;20625;-77
2023/04/01 04:08:59;;;;;;;1.33;0.73;;;8.60;99.90;;;;;;5056723;28;20181;-76
2023/04/01 04:11:25;;;;;;;0.30;0.30;;;8.50;99.90;;;;;;5059449;28;20180;-76
2023/04/01 04:13:52;;;;;;;0.52;0.52;;;8.40;99.90;;;;;;5059955;28;20265;-75
2023/04/01 04:16:18;;;;;;;1.17;0.80;;;8.40;99.90;;;;;;5058134;28;20178;-80
2023/04/01 04:18:43;;;;;;;1.73;0.80;;;8.40;99.90;;;;;;5047844;28;20176;-77
2023/04/01 04:21:13;;;;;;;1.83;0.73;;;8.30;99.90;;;;;;5049250;28;20204;-77
2023/04/01 04:23:39;;;;;;;1.20;0.57;;;8.30;99.90;;;;;;5047849;28;20245;-77
2023/04/01 04:26:07;;;;;;;1.67;0.43;;;8.40;99.90;;;;;;5049586;28;20184;-77
2023/04/01 04:28:33;;;;;;;1.85;0.70;;;8.50;99.90;;;;;;5057122;28;20184;-77
2023/04/01 04:30:58;;;;;;;2.28;0.60;;;8.50;99.90;;;;;;5053392;28;20187;-77
2023/04/01 04:33:24;;;;;;;0.52;0.52;;;8.60;99.90;;;;;;5056689;28;20254;-77
2023/04/01 04:35:51;;;;;;;1.02;0.47;;;8.60;99.90;;;;;;5059299;28;20296;-77
2023/04/01 04:38:17;;;;;;;0.98;0.55;;;8.60;99.90;;;;;;5054962;28;20184;-77
2023/04/01 04:40:43;;;;;;;2.00;0.98;;;8.60;99.90;;;;;;5051719;28;20215;-76
2023/04/01 04:43:14;;;;;;;0.50;0.50;;;8.50;99.90;;;;;;5046547;28;20671;-76
2023/04/01 04:45:41;;;;;;;0.90;0.50;;;8.60;99.90;;;;;;5057371;28;20190;-75
2023/04/01 04:48:12;;;;;;;0.70;0.70;;;8.50;99.90;;;;;;5042270;28;20188;-74
2023/04/01 04:50:40;;;;;;;0.95;0.93;;;8.40;99.90;;;;;;5066839;28;20183;-74
2023/04/01 04:53:06;;;;;;;1.85;0.47;;;8.20;99.90;;;;;;5047642;28;20303;-75
2023/04/01 04:55:31;;;;;;;0.38;0.38;;;8.10;99.90;;;;;;5056110;28;20240;-76
2023/04/01 04:57:57;;;;;;;1.02;0.77;;;8.00;99.90;;;;;;5065629;28;20180;-75
2023/04/01 05:00:22;;;;;;;0.30;0.30;;;7.90;99.90;;;;;;5057076;28;20274;-75
2023/04/01 05:02:48;;;;;;;1.90;0.47;;;7.80;99.90;;;;;;5041064;28;20207;-77
2023/04/01 05:05:14;;;;;;;0.93;0.70;;;7.80;99.90;;;;;;5051824;28;20172;-75
2023/04/01 05:07:39;;;;;;;0.70;0.70;;;7.80;99.90;;;;;;5056601;28;20178;-77
2023/04/01 05:10:05;;;;;;;1.95;0.95;;;7.70;99.90;;;;;;5059822;28;20182;-76
2023/04/01 05:12:33;;;;;;;0.85;0.65;;;7.70;99.90;;;;;;5049085;28;20270;-76
2023/04/01 05:14:59;;;;;;;2.00;0.57;;;7.70;99.90;;;;;;5053592;28;20176;-75
2023/04/01 05:17:24;;;;;;;0.63;0.55;;;7.80;99.90;;;;;;5056519;28;20680;-76
2023/04/01 05:19:50;;;;;;;0.63;0.52;;;7.80;99.90;;;;;;5059877;28;20284;-76
2023/04/01 05:22:16;;;;;;;0.90;0.70;;;7.80;99.90;;;;;;5048866;28;20245;-77
2023/04/01 05:24:41;;;;;;;0.70;0.70;;;7.80;99.90;;;;;;5041039;28;20253;-76
2023/04/01 05:27:07;;;;;;;0.80;0.68;;;7.80;99.90;;;;;;5058692;28;20184;-77
2023/04/01 05:29:33;;;;;;;1.52;0.90;;;7.90;99.90;;;;;;5061333;28;20185;-76
2023/04/01 05:31:58;;;;;;;0.65;0.65;;;8.00;99.90;;;;;;5058015;28;20211;-77
2023/04/01 05:34:24;;;;;;;0.40;0.40;;;8.10;99.90;;;;;;5060650;28;20215;-77
2023/04/01 05:36:50;;;;;;;0.40;0.40;;;8.30;99.90;;;;;;5055545;28;20198;-76
2023/04/01 05:39:15;;;;;;;1.15;0.80;;;8.40;99.90;;;;;;5053518;28;20179;-76
2023/04/01 05:41:41;;;;;;;1.17;0.55;;;8.40;99.90;;;;;;5056239;28;20211;-76
2023/04/01 05:44:06;;;;;;;0.55;0.55;;;8.50;99.90;;;;;;5038391;28;20172;-77
2023/04/01 05:46:32;;;;;;;2.28;0.88;;;8.50;99.90;;;;;;5037891;28;20176;-75
2023/04/01 05:48:58;;;;;;;3.92;0.60;;;8.60;99.90;;;;;;5060064;28;20256;-75
2023/04/01 05:51:23;;;;;;;2.00;0.80;;;8.60;99.90;;;;;;5050124;28;20211;-76
2023/04/01 05:53:49;;;;;;;0.35;0.35;;;8.60;99.90;;;;;;5048344;28;20207;-77
2023/04/01 05:56:15;;;;;;;0.50;0.50;;;8.60;99.90;;;;;;5052736;28;20233;-75
2023/04/01 05:58:41;;;;;;;1.65;0.65;;;8.70;99.90;;;;;;5047864;28;20219;-75
2023/04/01 06:01:09;;;;;;;1.42;0.47;;;8.80;99.90;;;;;;5050068;28;20222;-74
2023/04/01 06:03:34;;;;;;;0.75;0.45;;;8.90;99.90;;;;;;5054049;28;20200;-75
2023/04/01 06:06:00;;;;;;;0.20;0.20;;;9.00;99.90;;;;;;5062258;28;20194;-76
2023/04/01 06:08:27;;;;;;;0.40;0.40;;;9.10;99.90;;;;;;5041634;28;20661;-75
2023/04/01 06:11:24;;;;;;;0.47;0.20;;;9.20;99.90;;;;;;5060927;28;20179;-75
2023/04/01 06:14:00;;;;;;;0.60;0.60;;;9.30;99.90;;;;;;5056516;28;20209;-75
2023/04/01 06:16:31;;;;;;;0.55;0.22;;;9.20;99.90;;;;;;5050189;28;20175;-75
2023/04/01 06:19:06;;;;;;;0.30;0.30;;;9.10;99.90;;;;;;5032750;28;20183;-75
2023/04/01 06:21:54;;;;;;;0.32;0.32;;;9.10;99.90;;;;;;5062731;28;20199;-75
2023/04/01 06:24:40;;;;;;;0.70;0.52;;;9.00;99.90;;;;;;5054889;28;20190;-75
2023/04/01 06:27:40;;;;;;;0.60;0.60;;;9.00;99.90;;;;;;5035796;28;20183;-75
2023/04/01 06:30:37;;;;;;;0.20;0.20;;;9.00;99.90;;;;;;5051380;28;20164;-76
2023/04/01 06:33:32;;;;;;;0.65;0.30;;;9.20;99.90;;;;;;5028486;28;20205;-75
2023/04/01 06:36:15;;;;;;;0.20;0.20;;;9.40;99.90;;;;;;5048262;28;20954;-76
2023/04/01 06:38:43;;;;;;;0.30;0.30;;;9.50;99.90;;;;;;5044769;28;20228;-75
2023/04/01 06:41:35;;;;;;;0.00;0.00;;;9.50;99.90;;;;;;5028647;28;20314;-75
2023/04/01 06:44:32;;;;;;;0.10;0.10;;;9.60;99.90;;;;;;4997420;28;20257;-76
2023/04/01 06:47:14;;;;;;;0.38;0.38;;;9.60;99.90;;;;;;5049549;28;20176;-74
2023/04/01 06:49:57;;;;;;;0.22;0.22;;;9.60;99.90;;;;;;5047936;28;20172;-76
2023/04/01 06:52:27;;;;;;;0.30;0.30;;;9.60;99.90;;;;;;5047333;28;20200;-76
2023/04/01 06:55:17;;;;;;;0.32;0.30;;;9.60;99.90;;;;;;5049247;28;20180;-75
2023/04/01 06:57:46;;;;;;;2.13;0.32;;;9.60;99.90;;;;;;5054226;28;20199;-76
2023/04/01 07:00:27;;;;;;;0.43;0.20;;;9.50;99.90;;;;;;5052748;28;20184;-78
2023/04/01 07:03:19;;;;;;;0.10;0.10;;;9.50;99.90;;;;;;5052216;28;20291;-77
2023/04/01 07:05:45;;;;;;;0.57;0.40;;;9.60;99.90;;;;;;5036541;28;20693;-77
2023/04/01 07:08:21;;;;;;;0.40;0.40;;;9.60;99.90;;;;;;5053139;28;20183;-76
2023/04/01 07:10:58;;;;;;;0.60;0.40;;;9.50;99.90;;;;;;5045414;28;20187;-76
2023/04/01 07:13:42;;;;;;;0.32;0.32;;;9.60;99.90;;;;;;5053475;28;20199;-75
2023/04/01 07:16:32;;;;;;;0.20;0.20;;;9.70;99.90;;;;;;5054492;28;20557;-75
2023/04/01 07:19:23;;;;;;;1.50;0.75;;;9.90;99.90;;;;;;5051343;28;20229;-75
2023/04/01 07:21:55;;;;;;;0.50;0.50;;;10.30;99.90;;;;;;5043079;28;20207;-74
2023/04/01 07:24:31;;;;;;;1.10;0.50;;;10.40;99.90;;;;;;5060713;28;20223;-73
2023/04/01 07:26:58;;;;;;;1.02;0.65;;;10.40;99.90;;;;;;5054585;28;20655;-75
2023/04/01 07:29:25;;;;;;;0.30;0.30;;;10.40;99.90;;;;;;5051836;28;20176;-75
2023/04/01 07:32:00;;;;;;;0.30;0.30;;;10.40;99.90;;;;;;5048186;28;20215;-75
2023/04/01 07:34:43;;;;;;;0.40;0.30;;;10.50;99.90;;;;;;5037683;28;20226;-73
2023/04/01 07:37:16;;;;;;;0.30;0.30;;;10.60;99.90;;;;;;5044332;28;20266;-78
2023/04/01 07:39:58;;;;;;;0.40;0.40;;;10.70;99.90;;;;;;5057417;28;20183;-76
2023/04/01 07:42:35;;;;;;;0.68;0.40;;;10.80;99.90;;;;;;5047284;28;20285;-75
2023/04/01 07:45:21;;;;;;;0.08;0.08;;;10.90;99.90;;;;;;5027755;28;20245;-76
2023/04/01 07:48:13;;;;;;;0.47;0.30;;;11.10;99.90;;;;;;5006185;28;20196;-76
2023/04/01 07:51:05;;;;;;;0.95;0.70;;;11.20;99.90;;;;;;5047613;28;20218;-81
2023/04/01 07:54:02;;;;;;;0.80;0.55;;;11.40;99.90;;;;;;5058666;28;20286;-81
2023/04/01 07:56:46;;;;;;;0.63;0.47;;;11.80;99.90;;;;;;5043174;28;20605;-77
2023/04/01 07:59:18;;;;;;;0.35;0.35;;;11.90;99.90;;;;;;5044411;28;20181;-77
2023/04/01 08:01:58;;;;;;;0.50;0.22;;;12.10;99.90;;;;;;5044157;28;20257;-77
2023/04/01 08:04:45;;;;;;;0.43;0.43;;;12.50;99.90;;;;;;5049799;28;20644;-77
2023/04/01 08:07:23;;;;;;;0.30;0.30;;;12.60;99.90;;;;;;5036394;28;20188;-76
2023/04/01 08:10:13;;;;;;;0.32;0.28;;;12.90;99.90;;;;;;5044280;28;20651;-75
2023/04/01 08:13:11;;;;;;;0.70;0.70;;;13.10;99.90;;;;;;5057266;28;20692;-75
2023/04/01 08:16:05;;;;;;;0.30;0.30;;;13.20;99.90;;;;;;5052240;28;20236;-78
2023/04/01 08:19:01;;;;;;;0.57;0.45;;;13.40;99.90;;;;;;5060768;28;20202;-75
2023/04/01 08:21:41;;;;;;;0.68;0.40;;;13.40;99.90;;;;;;5059071;28;21213;-76
2023/04/01 08:24:40;;;;;;;0.85;0.30;;;13.30;99.90;;;;;;5054095;28;20205;-77
2023/04/01 08:27:29;;;;;;;0.20;0.20;;;13.30;99.90;;;;;;5055514;28;20684;-78
2023/04/01 08:30:17;;;;;;;0.30;0.30;;;13.00;99.90;;;;;;5059164;28;20266;-73
2023/04/01 08:32:59;;;;;;;0.30;0.30;;;12.60;99.90;;;;;;5050816;28;20204;-73
2023/04/01 08:35:33;;;;;;;0.20;0.20;;;12.40;99.90;;;;;;5057434;28;20204;-73
2023/04/01 08:38:12;;;;;;;0.32;0.32;;;12.60;99.90;;;;;;5063617;28;20261;-73
2023/04/01 08:40:53;;;;;;;0.40;0.30;;;12.80;99.90;;;;;;5055485;28;20178;-75
2023/04/01 08:43:50;;;;;;;0.30;0.30;;;13.20;99.90;;;;;;5057858;28;20199;-79
2023/04/01 08:46:33;;;;;;;2.00;0.60;;;13.40;99.90;;;;;;5054180;28;20237;-75
2023/04/01 08:49:10;;;;;;;0.40;0.40;;;13.70;99.90;;;;;;5048981;28;20187;-74
2023/04/01 08:51:39;;;;;;;0.32;0.20;;;14.00;99.90;;;;;;5053398;28;20230;-74
2023/04/01 08:54:16;;;;;;;0.50;0.40;;;14.30;99.90;;;;;;5055440;28;20180;-75
2023/04/01 08:56:51;;;;;;;0.45;0.45;;;14.70;99.90;;;;;;5060273;28;20240;-74
2023/04/01 08:59:25;;;;;;;0.28;0.28;;;14.90;99.90;;;;;;5052073;28;20214;-72
2023/04/01 09:02:15;;;;;;;0.75;0.30;;;15.00;99.90;;;;;;5055456;28;20762;-74
2023/04/01 09:05:16;;;;;;;0.43;0.40;;;14.90;99.90;;;;;;5038446;28;20187;-74
2023/04/01 09:08:25;;;;;;;0.90;0.47;;;14.70;99.90;;;;;;5058194;28;20183;-75
2023/04/01 09:11:15;;;;;;;0.80;0.40;;;14.40;99.90;;;;;;4951936;28;20199;-75
2023/04/01 09:14:16;;;;;;;1.80;0.70;;;14.40;99.90;;;;;;5054852;28;20199;-77
2023/04/01 09:17:00;;;;;;;0.55;0.30;;;14.40;99.90;;;;;;5052116;28;20174;-80
2023/04/01 09:19:44;;;;;;;1.08;0.40;;;14.30;99.90;;;;;;5056919;28;20302;-79
2023/04/01 09:22:32;;;;;;;0.52;0.30;;;14.20;99.90;;;;;;5059775;28;20633;-78
2023/04/01 09:25:15;;;;;;;0.40;0.40;;;14.20;99.90;;;;;;5042650;28;20210;-81
2023/04/01 09:27:49;;;;;;;2.50;0.63;;;14.30;99.90;;;;;;5053903;28;20182;-78
2023/04/01 09:30:39;;;;;;;0.40;0.40;;;14.30;99.90;;;;;;5054947;28;20172;-76
2023/04/01 09:33:41;;;;;;;0.25;0.15;;;14.20;99.90;;;;;;5033465;28;20291;-76
2023/04/01 09:36:44;;;;;;;1.75;0.40;;;14.10;99.90;;;;;;5032910;28;20599;-78
2023/04/01 09:39:34;;;;;;;0.30;0.30;;;14.30;99.90;;;;;;5023398;28;20203;-77
2023/04/01 09:42:00;;;;;;;0.25;0.20;;;14.90;99.90;;;;;;5052397;28;20331;-76
2023/04/01 09:44:35;;;;;;;1.00;0.52;;;15.20;99.90;;;;;;5048401;28;20201;-75
2023/04/01 09:47:39;;;;;;;0.85;0.63;;;15.10;99.80;;;;;;5052821;28;21201;-74
2023/04/01 09:50:34;;;;;;;0.98;0.65;;;15.00;99.90;;;;;;5020878;28;20277;-77
2023/04/01 09:53:30;;;;;;;0.30;0.30;;;15.10;99.90;;;;;;5031540;28;20222;-76
2023/04/01 09:56:31;;;;;;;0.20;0.20;;;15.00;99.90;;;;;;5055404;28;20226;-76
2023/04/01 09:59:11;;;;;;;0.50;0.50;;;14.90;99.90;;;;;;5021070;28;20211;-76
2023/04/01 10:01:57;;;;;;;1.45;0.32;;;14.70;99.90;;;;;;5053487;28;20724;-77
2023/04/01 10:04:50;;;;;;;0.15;0.15;;;14.50;99.90;;;;;;5035907;28;20199;-77
2023/04/01 10:07:33;;;;;;;0.25;0.17;;;14.40;99.90;;;;;;5051914;28;20207;-76
2023/04/01 10:10:31;;;;;;;0.43;0.43;;;14.40;99.90;;;;;;5046591;28;20290;-77
2023/04/01 10:13:29;;;;;;;0.47;0.45;;;14.40;99.60;;;;;;5045975;28;20582;-79
2023/04/01 10:16:33;;;;;;;0.73;0.20;;;14.60;99.90;;;;;;5054943;28;20685;-78
2023/04/01 10:19:16;;;;;;;2.92;0.20;;;14.80;98.70;;;;;;5034754;28;20179;-78
2023/04/01 10:22:04;;;;;;;0.30;0.30;;;15.00;98.70;;;;;;5053776;28;20211;-78
2023/04/01 10:24:29;;;;;;;0.17;0.17;;;15.00;98.90;;;;;;5059604;28;20180;-80
2023/04/01 10:26:58;;;;;;;0.80;0.32;;;15.00;98.90;;;;;;5057564;28;20249;-79
2023/04/01 10:29:30;;;;;;;0.60;0.60;;;15.00;99.60;;;;;;5054146;28;20180;-79
2023/04/01 10:32:17;;;;;;;1.13;0.28;;;15.00;99.20;;;;;;5035338;28;20198;-79
2023/04/01 10:34:55;;;;;;;0.52;0.43;;;15.10;98.60;;;;;;5051035;28;20248;-79
2023/04/01 10:37:52;;;;;;;0.38;0.38;;;15.30;98.80;;;;;;5049698;28;20233;-77
2023/04/01 10:40:57;;;;;;;0.30;0.30;;;15.60;97.90;;;;;;5039563;28;20729;-76
2023/04/01 10:44:00;;;;;;;0.40;0.40;;;15.90;96.70;;;;;;5053733;28;20206;-76
2023/04/01 10:46:29;;;;;;;0.47;0.47;;;15.70;96.50;;;;;;5053553;28;20237;-76
2023/04/01 10:49:19;;;;;;;0.47;0.43;;;15.70;96.50;;;;;;5037117;28;20184;-77
2023/04/01 10:52:19;;;;;;;1.70;0.50;;;15.50;96.50;;;;;;5054459;28;20745;-77
2023/04/01 10:55:04;;;;;;;0.88;0.50;;;15.30;97.10;;;;;;5030113;28;20196;-76
2023/04/01 10:57:38;;;;;;;1.33;0.40;;;15.10;96.90;;;;;;5047964;28;20651;-76
2023/04/01 11:00:12;;;;;;;0.75;0.40;;;14.90;97.60;;;;;;5049176;28;20176;-76
2023/04/01 11:02:41;;;;;;;0.50;0.25;;;14.90;97.30;;;;;;5051819;28;20216;-77
2023/04/01 11:05:28;;;;;;;0.40;0.40;;;15.00;97.90;;;;;;5055269;28;20463;-77
2023/04/01 11:07:59;;;;;;;1.08;0.30;;;15.10;97.20;;;;;;5052896;28;20251;-76
2023/04/01 11:10:43;;;;;;;2.97;0.47;;;15.20;96.70;;;;;;5039944;28;20194;-77
2023/04/01 11:13:41;;;;;;;0.43;0.28;;;15.40;96.30;;;;;;5037769;28;20210;-77
2023/04/01 11:16:41;;;;;;;0.25;0.25;;;15.50;96.00;;;;;;5045719;28;20179;-77
2023/04/01 11:19:24;;;;;;;0.40;0.30;;;15.60;95.80;;;;;;5044087;28;20182;-77
2023/04/01 11:22:21;;;;;;;0.30;0.30;;;15.80;95.20;;;;;;5045441;28;20198;-77
2023/04/01 11:25:15;;;;;;;0.40;0.40;;;15.90;94.90;;;;;;5046518;28;20190;-77
2023/04/01 11:27:59;;;;;;;0.57;0.40;;;15.60;94.80;;;;;;5033913;28;20185;-76
2023/04/01 11:30:46;;;;;;;0.38;0.20;;;15.10;96.60;;;;;;5055731;28;20236;-76
2023/04/01 11:33:41;;;;;;;0.35;0.35;;;14.90;97.20;;;;;;5056181;28;20328;-76
2023/04/01 11:36:28;;;;;;;0.45;0.45;;;14.70;99.90;;;;;;5048936;28;20194;-75
2023/04/01 11:38:56;;;;;;;0.38;0.38;;;14.40;99.90;;;;;;5041646;28;20642;-76
2023/04/01 11:42:01;;;;;;;0.30;0.30;;;13.60;99.90;;;;;;5050975;28;20324;-76
2023/04/01 11:44:30;;;;;;;2.53;0.43;;;12.70;99.90;;;;;;5056298;28;20529;-75
2023/04/01 11:47:34;;;;;;;0.85;0.30;;;12.10;99.90;;;;;;5046978;28;20183;-76
2023/04/01 11:50:28;;;;;;;0.52;0.52;;;11.90;99.90;;;;;;5044198;28;20693;-76
2023/04/01 11:53:00;;;;;;;0.30;0.30;;;11.70;99.90;;;;;;5058886;28;20218;-75
2023/04/01 11:55:28;;;;;;;0.32;0.32;;;11.60;99.90;;;;;;5055684;28;20194;-75
2023/04/01 11:58:18;;;;;;;0.45;0.43;;;11.40;99.90;;;;;;5067357;28;20561;-75
2023/04/01 12:01:14;;;;;;;0.75;0.60;;;11.30;99.90;;;;;;5052897;28;20217;-75
2023/04/01 12:04:17;;;;;;;0.22;0.22;;;11.40;99.90;;;;;;5039707;28;20294;-75
2023/04/01 12:06:57;;;;;;;0.30;0.30;;;11.30;99.90;;;;;;5053711;28;20638;-75
2023/04/01 12:09:53;;;;;;;0.20;0.20;;;11.10;99.90;;;;;;5056998;28;20202;-75
2023/04/01 12:12:42;;;;;;;0.40;0.40;;;11.00;99.90;;;;;;5051275;28;20207;-75
2023/04/01 12:15:26;;;;;;;1.30;0.20;;;11.20;99.90;;;;;;5059908;28;20248;-75
2023/04/01 12:18:38;;;;;;;0.30;0.30;;;11.20;99.90;;;;;;5062892;28;20223;-75
2023/04/01 12:21:24;;;;;;;0.65;0.32;;;11.00;99.90;;;;;;4999662;28;20217;-75
2023/04/01 12:24:02;;;;;;;1.42;0.40;;;11.10;99.90;;;;;;5045312;28;20292;-75
2023/04/01 12:26:55;;;;;;;0.75;0.60;;;11.20;99.90;;;;;;5055790;28;20651;-75
2023/04/01 12:29:42;;;;;;;1.40;0.60;;;11.10;99.90;;;;;;5053293;28;20192;-74
2023/04/01 12:32:21;;;;;;;0.80;0.77;;;11.10;99.90;;;;;;5042715;28;20200;-75
2023/04/01 12:34:57;;;;;;;0.93;0.75;;;11.00;99.90;;;;;;5051777;28;20215;-75
2023/04/01 12:37:48;;;;;;;0.30;0.30;;;11.00;99.90;;;;;;5054462;28;20214;-76
2023/04/01 12:40:50;;;;;;;0.40;0.40;;;11.00;99.90;;;;;;5054368;28;20699;-77
2023/04/01 12:43:27;;;;;;;0.22;0.10;;;11.00;99.90;;;;;;5052631;28;20211;-75
2023/04/01 12:46:07;;;;;;;0.30;0.30;;;10.90;99.90;;;;;;5046791;28;20191;-75
2023/04/01 12:48:51;;;;;;;0.55;0.30;;;10.90;99.90;;;;;;5050160;28;20561;-75
2023/04/01 12:51:35;;;;;;;0.40;0.40;;;10.90;99.90;;;;;;5051617;28;20237;-75
2023/04/01 12:54:25;;;;;;;0.90;0.52;;;10.90;99.90;;;;;;5050302;28;20253;-75
2023/04/01 12:57:03;;;;;;;0.50;0.50;;;10.90;99.90;;;;;;5047048;28;20226;-74
2023/04/01 13:00:08;;;;;;;1.38;0.38;;;10.70;99.90;;;;;;5057511;28;20176;-77
2023/04/01 13:02:59;;;;;;;0.40;0.40;;;10.60;99.90;;;;;;5025185;28;20314;-75
2023/04/01 13:05:26;;;;;;;0.60;0.60;;;10.50;99.90;;;;;;5046513;28;20195;-75
2023/04/01 13:07:55;;;;;;;0.82;0.65;;;10.30;99.90;;;;;;5056793;28;20179;-76
2023/04/01 13:10:28;;;;;;;1.55;0.60;;;10.10;99.90;;;;;;5048485;28;20242;-78
2023/04/01 13:13:02;;;;;;;1.08;0.60;;;9.90;99.90;;;;;;5055206;28;20203;-75
2023/04/01 13:15:40;;;;;;;0.32;0.32;;;9.90;99.90;;;;;;5040962;28;20175;-75
2023/04/01 13:18:26;;;;;;;0.80;0.80;;;9.90;99.90;;;;;;5045188;28;20217;-75
2023/04/01 13:21:18;;;;;;;0.50;0.50;;;9.90;99.90;;;;;;5051558;28;20694;-76
2023/04/01 13:24:03;;;;;;;0.52;0.52;;;9.90;99.90;;;;;;5050444;28;20602;-75
2023/04/01 13:26:53;;;;;;;0.75;0.75;;;10.10;99.90;;;;;;5058212;28;20565;-76
2023/04/01 13:29:40;;;;;;;0.50;0.50;;;10.30;99.90;;;;;;5060400;28;20723;-75
2023/04/01 13:32:22;;;;;;;0.30;0.30;;;10.60;99.90;;;;;;5059623;28;20206;-75
2023/04/01 13:35:14;;;;;;;2.22;1.10;;;10.80;99.90;;;;;;5050096;28;20183;-76
2023/04/01 13:37:48;;;;;;;0.52;0.52;;;10.80;99.90;;;;;;5062720;28;20257;-77
2023/04/01 13:40:46;;;;;;;0.95;0.95;;;10.60;99.90;;;;;;5058191;28;20183;-77
2023/04/01 13:43:23;;;;;;;0.98;0.80;;;10.50;99.90;;;;;;5029494;28;20269;-75
2023/04/01 13:46:15;;;;;;;1.52;1.42;;;10.30;99.90;;;;;;5057692;28;20266;-75